Time;durP1;ratioP1;P1;durP2;ratioP2;P2;SDS_P1;SDS_P2;PMS_P1;PMS_P2;Temp;Humidity;BMP_temperature;BMP_pressure;BME280_temperature;BME280_humidity;BME280_pressure;Samples;Min_cycle;Max_cycle;Signal;HPM_P1;HPM_P2
2022/05/29 04:31:08;;;;;;;6.97;4.37;;;10.70;99.90;;;;;;5621970;23;20553;-69
2022/05/29 04:33:33;;;;;;;5.07;3.00;;;10.80;99.90;;;;;;4938768;29;20646;-69
2022/05/29 04:35:59;;;;;;;4.67;3.60;;;10.80;99.90;;;;;;4938176;29;20237;-69
2022/05/29 04:38:27;;;;;;;4.90;3.93;;;10.80;99.90;;;;;;4938833;29;20589;-69
2022/05/29 04:40:53;;;;;;;4.93;3.20;;;10.90;99.90;;;;;;4938802;29;20187;-70
2022/05/29 04:43:20;;;;;;;6.77;4.33;;;10.90;99.90;;;;;;4938916;29;20438;-70
2022/05/29 04:45:46;;;;;;;6.80;3.50;;;11.00;99.90;;;;;;4938550;29;20529;-72
2022/05/29 04:48:14;;;;;;;8.37;3.83;;;11.10;99.90;;;;;;4938694;29;20427;-72
2022/05/29 04:50:40;;;;;;;7.47;4.20;;;11.20;99.90;;;;;;4938676;29;20502;-72
2022/05/29 04:53:06;;;;;;;11.00;4.23;;;11.30;99.90;;;;;;4938739;29;21005;-69
2022/05/29 04:55:32;;;;;;;6.70;3.37;;;11.20;99.90;;;;;;4938509;29;20570;-69
2022/05/29 04:57:58;;;;;;;11.57;4.03;;;11.20;99.90;;;;;;4938537;29;20422;-69
2022/05/29 05:00:24;;;;;;;8.03;3.50;;;11.20;99.90;;;;;;4938531;29;21050;-71
2022/05/29 05:02:50;;;;;;;5.10;3.77;;;11.30;99.90;;;;;;4938353;29;20450;-72
2022/05/29 05:05:16;;;;;;;11.47;3.90;;;11.40;99.90;;;;;;4938442;29;20232;-72
2022/05/29 05:07:42;;;;;;;6.80;3.70;;;11.40;99.90;;;;;;4937885;29;20186;-72
2022/05/29 05:10:11;;;;;;;10.30;3.50;;;11.40;99.90;;;;;;4937255;29;20798;-72
2022/05/29 05:12:41;;;;;;;8.23;3.93;;;11.40;99.90;;;;;;4937420;29;20639;-71
2022/05/29 05:15:08;;;;;;;6.47;4.13;;;11.40;99.90;;;;;;4937330;29;20577;-71
2022/05/29 05:17:34;;;;;;;5.33;3.90;;;11.40;99.90;;;;;;4937323;29;20441;-71
2022/05/29 05:20:00;;;;;;;8.80;3.77;;;11.40;99.90;;;;;;4937417;29;20450;-71
2022/05/29 05:22:25;;;;;;;5.03;3.97;;;11.40;99.90;;;;;;4937243;29;20179;-71
2022/05/29 05:24:51;;;;;;;8.73;4.33;;;11.50;99.90;;;;;;4937190;29;20186;-69
2022/05/29 05:27:16;;;;;;;8.00;3.87;;;11.50;99.90;;;;;;4937084;29;20182;-69
2022/05/29 05:29:45;;;;;;;6.83;4.30;;;11.50;99.90;;;;;;4937004;29;20191;-69
2022/05/29 05:32:11;;;;;;;6.07;3.80;;;11.40;99.90;;;;;;4936615;29;20289;-69
2022/05/29 05:34:37;;;;;;;5.70;4.37;;;11.50;99.90;;;;;;4936881;29;20835;-69
2022/05/29 05:37:02;;;;;;;11.37;4.87;;;11.50;99.90;;;;;;4936788;29;20323;-69
2022/05/29 05:39:28;;;;;;;6.40;4.47;;;11.50;99.90;;;;;;4936826;29;20530;-69
2022/05/29 05:41:54;;;;;;;18.13;5.63;;;11.40;99.90;;;;;;4936909;29;20431;-70
2022/05/29 05:44:20;;;;;;;4.77;4.20;;;11.40;99.90;;;;;;4936945;29;20634;-70
2022/05/29 05:46:49;;;;;;;14.40;4.40;;;11.40;99.90;;;;;;4936688;29;20607;-70
2022/05/29 05:49:18;;;;;;;9.93;4.63;;;11.50;99.90;;;;;;4936798;29;20435;-70
2022/05/29 05:51:45;;;;;;;6.90;4.57;;;11.50;99.90;;;;;;4936703;29;20449;-69
2022/05/29 05:54:11;;;;;;;7.00;4.23;;;11.50;99.90;;;;;;4936234;29;20438;-69
2022/05/29 05:56:44;;;;;;;8.53;5.33;;;11.50;99.90;;;;;;4937192;29;20466;-70
2022/05/29 05:59:10;;;;;;;9.80;5.10;;;11.50;99.90;;;;;;4937324;29;20822;-70
2022/05/29 06:01:36;;;;;;;11.70;4.63;;;11.50;99.90;;;;;;4937174;29;20482;-70
2022/05/29 06:04:02;;;;;;;9.73;5.50;;;11.50;99.90;;;;;;4937386;29;20427;-72
2022/05/29 06:06:27;;;;;;;9.80;5.90;;;11.50;99.90;;;;;;4937255;29;20427;-72
2022/05/29 06:08:56;;;;;;;14.83;6.20;;;11.60;99.90;;;;;;4937220;29;20177;-72
2022/05/29 06:11:21;;;;;;;13.27;5.60;;;11.60;99.90;;;;;;4936990;29;20882;-74
2022/05/29 06:13:47;;;;;;;8.77;5.90;;;11.60;99.90;;;;;;4937042;29;20190;-72
2022/05/29 06:16:13;;;;;;;9.17;5.70;;;11.60;99.90;;;;;;4936909;29;20211;-71
2022/05/29 06:18:39;;;;;;;10.93;6.40;;;11.70;99.90;;;;;;4934709;29;20320;-71
2022/05/29 06:21:05;;;;;;;10.10;6.67;;;11.80;99.90;;;;;;4937034;29;20498;-71
2022/05/29 06:23:32;;;;;;;8.73;6.83;;;11.80;99.90;;;;;;4936787;29;20431;-71
2022/05/29 06:26:11;;;;;;;11.80;6.90;;;11.80;99.90;;;;;;4941530;29;20205;-72
2022/05/29 06:28:36;;;;;;;11.47;7.53;;;12.00;99.90;;;;;;4917883;29;20442;-72
2022/05/29 06:31:06;;;;;;;7.40;6.70;;;12.00;99.90;;;;;;4917769;29;20460;-72
2022/05/29 06:33:32;;;;;;;16.90;7.40;;;12.00;99.90;;;;;;4917707;29;20188;-72
2022/05/29 06:36:09;;;;;;;8.37;7.20;;;12.00;99.90;;;;;;4917349;29;20492;-73
2022/05/29 06:38:35;;;;;;;15.17;7.53;;;12.00;99.90;;;;;;4917659;29;20527;-73
2022/05/29 06:41:05;;;;;;;9.20;7.40;;;12.10;99.90;;;;;;4917697;29;21137;-72
2022/05/29 06:43:30;;;;;;;16.03;7.67;;;12.10;99.90;;;;;;4917596;29;20235;-72
2022/05/29 06:45:57;;;;;;;17.50;7.63;;;12.10;99.90;;;;;;4917181;29;20827;-73
2022/05/29 06:48:23;;;;;;;12.07;7.30;;;12.10;99.90;;;;;;4916884;29;20673;-71
2022/05/29 06:50:48;;;;;;;14.20;7.50;;;12.10;99.90;;;;;;4916528;29;20436;-72
2022/05/29 06:53:14;;;;;;;15.33;7.57;;;12.20;99.90;;;;;;4916481;29;20603;-71
2022/05/29 06:55:40;;;;;;;14.50;7.60;;;12.30;99.90;;;;;;4916351;29;20705;-71
2022/05/29 06:58:06;;;;;;;12.97;7.10;;;12.30;99.90;;;;;;4916514;29;20180;-72
2022/05/29 07:08:45;;;;;;;10.63;7.80;;;12.50;99.90;;;;;;4916541;29;20539;-71
2022/05/29 07:11:16;;;;;;;19.83;10.10;;;12.60;99.90;;;;;;4916200;29;20515;-72
2022/05/29 07:13:42;;;;;;;10.67;7.90;;;12.50;99.90;;;;;;4916283;29;20271;-72
2022/05/29 07:16:08;;;;;;;16.40;9.73;;;12.60;99.90;;;;;;4914791;29;20578;-71
2022/05/29 07:18:33;;;;;;;15.10;9.60;;;12.60;99.90;;;;;;4916072;29;20592;-71
2022/05/29 07:21:00;;;;;;;11.90;10.30;;;12.70;99.90;;;;;;4916096;29;20215;-72
2022/05/29 07:23:26;;;;;;;13.40;9.87;;;12.80;99.90;;;;;;4915146;29;20639;-71
2022/05/29 07:25:51;;;;;;;11.23;8.83;;;12.80;99.90;;;;;;4915807;29;20610;-70
2022/05/29 07:28:17;;;;;;;10.97;9.77;;;12.90;99.90;;;;;;4915984;29;20546;-71
2022/05/29 07:30:42;;;;;;;12.60;9.50;;;13.00;99.90;;;;;;4915585;29;20315;-72
2022/05/29 07:33:08;;;;;;;14.90;10.83;;;13.00;99.90;;;;;;4915791;29;20175;-72
2022/05/29 07:35:35;;;;;;;14.70;9.97;;;13.00;99.90;;;;;;4915426;29;20244;-70
2022/05/29 07:38:01;;;;;;;20.67;10.57;;;13.00;99.90;;;;;;4915949;29;20267;-72
2022/05/29 07:40:26;;;;;;;15.77;11.50;;;13.10;99.90;;;;;;4915811;29;20876;-72
2022/05/29 07:45:36;;;;;;;13.77;9.80;;;13.00;99.90;;;;;;4915723;29;20610;-73
2022/05/29 07:48:02;;;;;;;12.10;10.80;;;13.00;99.90;;;;;;4915928;29;20423;-73
2022/05/29 07:50:28;;;;;;;11.60;9.90;;;12.90;99.90;;;;;;4914582;29;20651;-72
2022/05/29 07:52:54;;;;;;;14.93;10.30;;;12.90;99.90;;;;;;4915697;29;20616;-73
2022/05/29 07:55:20;;;;;;;15.00;9.87;;;12.90;99.90;;;;;;4915624;29;20220;-74
2022/05/29 07:57:47;;;;;;;14.13;10.47;;;12.90;99.90;;;;;;4915836;29;20961;-76
2022/05/29 08:00:16;;;;;;;12.93;9.80;;;12.80;99.90;;;;;;4915713;29;20915;-73
2022/05/29 08:02:41;;;;;;;12.97;9.30;;;12.80;99.90;;;;;;4915228;29;20424;-75
2022/05/29 08:05:10;;;;;;;9.60;7.90;;;12.80;99.90;;;;;;4915805;29;21006;-73
2022/05/29 08:07:36;;;;;;;10.17;6.70;;;12.90;99.90;;;;;;4915522;29;20215;-77
2022/05/29 08:10:02;;;;;;;10.47;8.20;;;12.90;99.90;;;;;;4915529;29;20463;-73
2022/05/29 08:12:27;;;;;;;13.80;8.57;;;13.00;99.90;;;;;;4915295;29;20447;-73
2022/05/29 08:14:53;;;;;;;7.97;5.77;;;13.00;99.90;;;;;;4915207;29;20527;-72
2022/05/29 08:17:18;;;;;;;12.20;5.47;;;13.10;99.90;;;;;;4915252;29;20265;-72
2022/05/29 08:19:44;;;;;;;8.17;4.80;;;13.20;99.90;;;;;;4915251;29;20199;-71
2022/05/29 08:22:09;;;;;;;6.43;4.37;;;13.30;99.90;;;;;;4915109;29;20749;-72
2022/05/29 08:30:51;;;;;;;6.27;4.00;;;13.60;99.90;;;;;;4874955;29;20541;-73
2022/05/29 08:33:31;;;;;;;5.40;4.10;;;13.70;99.90;;;;;;4875734;29;20425;-73
2022/05/29 08:36:02;;;;;;;5.93;3.47;;;13.80;99.90;;;;;;4899717;29;20829;-72
2022/05/29 08:38:29;;;;;;;8.13;3.40;;;13.90;99.90;;;;;;4915516;29;20424;-72
2022/05/29 08:40:58;;;;;;;6.50;3.20;;;14.10;99.90;;;;;;4915153;29;20939;-73
2022/05/29 08:43:43;;;;;;;4.07;3.00;;;14.10;99.90;;;;;;4917932;29;20970;-73
2022/05/29 08:46:14;;;;;;;5.20;2.00;;;14.10;99.90;;;;;;4917495;29;20431;-73
2022/05/29 08:48:40;;;;;;;7.83;2.90;;;14.10;99.90;;;;;;4918645;29;20787;-72
2022/05/29 08:51:20;;;;;;;6.70;2.97;;;14.10;99.90;;;;;;4918790;29;20428;-72
2022/05/29 08:54:10;;;;;;;12.30;3.17;;;14.20;99.90;;;;;;4918575;29;20677;-76
2022/05/29 08:56:45;;;;;;;4.80;3.03;;;14.20;99.90;;;;;;4918329;29;20448;-72
2022/05/29 08:59:39;;;;;;;4.67;2.60;;;14.20;99.90;;;;;;4918524;29;20511;-70
2022/05/29 09:02:35;;;;;;;5.60;3.13;;;14.40;99.90;;;;;;4918461;29;20829;-74
2022/05/29 09:05:13;;;;;;;6.73;2.07;;;14.40;99.90;;;;;;4918053;29;20416;-72
2022/05/29 09:07:40;;;;;;;6.17;2.27;;;14.50;99.90;;;;;;4918086;29;20439;-70
2022/05/29 09:10:33;;;;;;;6.13;3.60;;;14.50;99.90;;;;;;4918458;29;20440;-76
2022/05/29 09:13:02;;;;;;;5.60;2.67;;;14.70;99.90;;;;;;4918133;29;20534;-75
2022/05/29 09:15:40;;;;;;;6.63;2.60;;;14.80;99.90;;;;;;4917802;29;20839;-72
2022/05/29 09:18:12;;;;;;;6.83;2.43;;;14.90;99.90;;;;;;4918097;29;20431;-72
2022/05/29 09:20:46;;;;;;;9.13;2.77;;;14.90;99.90;;;;;;4917625;29;20447;-74
2022/05/29 09:23:18;;;;;;;9.43;3.17;;;14.90;99.90;;;;;;4918191;29;20476;-73
2022/05/29 09:25:44;;;;;;;7.53;2.83;;;14.80;99.90;;;;;;4917926;29;20442;-73
2022/05/29 09:28:31;;;;;;;5.70;2.97;;;14.80;99.90;;;;;;4917148;29;20923;-74
2022/05/29 09:31:10;;;;;;;3.20;2.63;;;14.80;99.90;;;;;;4917483;29;20904;-71
2022/05/29 09:33:37;;;;;;;3.60;2.83;;;14.80;99.90;;;;;;4917650;29;20763;-76
2022/05/29 09:36:18;;;;;;;5.13;2.87;;;14.80;99.90;;;;;;4917828;29;20480;-71
2022/05/29 09:38:51;;;;;;;5.03;2.43;;;14.80;99.90;;;;;;4917808;29;20843;-81
2022/05/29 09:41:43;;;;;;;4.60;2.33;;;14.70;99.90;;;;;;4918015;29;20514;-84
2022/05/29 09:44:17;;;;;;;6.53;2.13;;;14.60;99.90;;;;;;4917764;29;20460;-74
2022/05/29 09:46:53;;;;;;;1.97;1.10;;;14.40;99.90;;;;;;4917731;29;20423;-74
2022/05/29 09:49:42;;;;;;;5.00;1.40;;;14.20;99.90;;;;;;4917714;29;20431;-72
2022/05/29 09:52:22;;;;;;;4.93;1.83;;;14.00;99.90;;;;;;4917528;29;20431;-73
2022/05/29 09:54:55;;;;;;;2.93;1.50;;;13.90;99.90;;;;;;4917276;29;20479;-72
2022/05/29 09:57:26;;;;;;;3.10;1.40;;;13.80;99.90;;;;;;4917737;29;20576;-75
2022/05/29 10:00:17;;;;;;;1.60;1.50;;;13.80;99.90;;;;;;4917310;29;20498;-75
2022/05/29 10:02:46;;;;;;;2.07;1.47;;;13.90;99.90;;;;;;4907239;29;20917;-73
2022/05/29 10:05:24;;;;;;;2.60;1.40;;;14.00;99.90;;;;;;4917387;29;20483;-75
2022/05/29 10:07:51;;;;;;;4.40;1.50;;;13.80;99.90;;;;;;4917308;29;20439;-78
2022/05/29 10:10:25;;;;;;;3.53;1.60;;;13.80;99.90;;;;;;4917290;29;20466;-78
2022/05/29 10:12:53;;;;;;;4.60;2.10;;;13.80;99.90;;;;;;4917327;29;20934;-77
2022/05/29 10:15:25;;;;;;;8.83;2.33;;;13.80;99.90;;;;;;4916997;29;20515;-73
2022/05/29 10:17:58;;;;;;;4.57;2.33;;;14.00;99.90;;;;;;4917051;29;20431;-74
2022/05/29 10:20:26;;;;;;;6.57;2.33;;;14.10;99.90;;;;;;4916349;29;20998;-82
2022/05/29 10:22:54;;;;;;;4.50;1.93;;;14.20;99.90;;;;;;4916282;29;20455;-75
2022/05/29 10:25:29;;;;;;;6.50;2.90;;;14.40;99.90;;;;;;4917668;29;20784;-72
2022/05/29 10:28:00;;;;;;;6.27;3.07;;;14.40;99.90;;;;;;4917470;29;20423;-74
2022/05/29 10:30:43;;;;;;;6.97;2.40;;;14.40;99.90;;;;;;4917458;29;20427;-74
2022/05/29 10:33:13;;;;;;;4.67;3.00;;;14.40;99.90;;;;;;4917715;29;20430;-74
2022/05/29 10:35:41;;;;;;;5.85;2.20;;;14.40;99.90;;;;;;4916881;29;20478;-78
2022/05/29 10:38:22;;;;;;;3.00;1.80;;;14.30;99.90;;;;;;4917670;29;20644;-76
2022/05/29 10:40:57;;;;;;;3.60;2.20;;;14.30;99.90;;;;;;4917531;29;20432;-76
2022/05/29 10:43:42;;;;;;;20.43;3.27;;;14.40;99.90;;;;;;4917575;29;20423;-76
2022/05/29 10:46:10;;;;;;;7.83;2.50;;;14.60;99.90;;;;;;4917837;29;20818;-76
2022/05/29 10:49:49;;;;;;;5.50;2.03;;;14.80;99.90;;;;;;4917424;29;20923;-76
2022/05/29 10:52:16;;;;;;;4.00;2.07;;;14.90;99.90;;;;;;4932655;29;20534;-77
2022/05/29 10:55:05;;;;;;;1.97;1.70;;;15.10;99.90;;;;;;4929805;29;20505;-77
2022/05/29 10:57:41;;;;;;;2.30;1.80;;;15.40;99.90;;;;;;4938346;29;20934;-77
2022/05/29 11:00:13;;;;;;;5.13;2.00;;;15.60;99.90;;;;;;4942478;29;20437;-76
2022/05/29 11:03:18;;;;;;;2.50;2.10;;;15.70;99.90;;;;;;4943358;29;20438;-75
2022/05/29 11:06:21;;;;;;;3.40;1.80;;;15.70;99.90;;;;;;4941125;29;20914;-75
2022/05/29 11:09:01;;;;;;;2.70;2.10;;;15.60;99.90;;;;;;4942195;29;20438;-72
2022/05/29 11:11:55;;;;;;;8.67;2.47;;;15.60;99.90;;;;;;4944036;29;20430;-74
2022/05/29 11:14:45;;;;;;;3.93;2.07;;;15.60;99.90;;;;;;4942036;29;20438;-73
2022/05/29 11:17:39;;;;;;;2.40;1.80;;;15.80;99.90;;;;;;4944676;29;20803;-74
2022/05/29 11:20:14;;;;;;;2.80;2.13;;;15.70;99.90;;;;;;4943175;29;20439;-73
2022/05/29 11:23:17;;;;;;;3.37;2.30;;;15.50;99.90;;;;;;4941727;29;20946;-74
2022/05/29 11:26:23;;;;;;;2.80;2.00;;;15.40;99.90;;;;;;4941866;29;20930;-72
2022/05/29 11:29:00;;;;;;;2.70;1.73;;;14.60;99.90;;;;;;4943498;28;20490;-74
2022/05/29 11:31:31;;;;;;;3.30;1.80;;;14.40;99.90;;;;;;4942993;29;20463;-76
2022/05/29 11:34:26;;;;;;;6.80;1.90;;;14.20;99.90;;;;;;4940390;29;20458;-76
2022/05/29 11:37:22;;;;;;;4.90;1.77;;;14.10;99.90;;;;;;4954626;29;20533;-76
2022/05/29 11:39:56;;;;;;;3.47;1.70;;;14.10;99.90;;;;;;4954754;29;20787;-76
2022/05/29 11:42:45;;;;;;;3.97;2.30;;;14.00;99.90;;;;;;4954765;29;20425;-76
2022/05/29 11:45:17;;;;;;;5.00;2.20;;;13.70;99.90;;;;;;4954839;29;20429;-77
2022/05/29 11:53:46;;;;;;;3.07;2.00;;;13.20;99.90;;;;;;4954965;29;20429;-78
2022/05/29 11:56:23;;;;;;;6.50;1.90;;;13.30;99.90;;;;;;4954422;29;20470;-78
2022/05/29 11:58:59;;;;;;;4.00;2.40;;;13.40;99.90;;;;;;4954464;29;20437;-78
2022/05/29 12:01:37;;;;;;;3.07;1.90;;;13.50;99.90;;;;;;4954037;29;20541;-78
2022/05/29 12:04:27;;;;;;;2.37;2.03;;;13.50;99.90;;;;;;4953814;29;20513;-78
2022/05/29 12:06:59;;;;;;;6.53;1.70;;;13.60;99.90;;;;;;4954354;28;20846;-77
2022/05/29 12:09:36;;;;;;;5.00;3.80;;;13.60;99.90;;;;;;4954322;29;20454;-78
2022/05/29 12:12:17;;;;;;;2.47;1.80;;;13.70;99.90;;;;;;4954691;29;20517;-78
2022/05/29 12:14:58;;;;;;;4.60;2.07;;;13.70;99.90;;;;;;4954359;29;20817;-78
2022/05/29 12:17:31;;;;;;;2.30;2.10;;;13.80;99.90;;;;;;4955849;28;20612;-77
2022/05/29 12:20:40;;;;;;;2.13;1.93;;;13.90;99.90;;;;;;4955909;29;20851;-78
2022/05/29 12:23:22;;;;;;;3.70;2.00;;;14.10;99.90;;;;;;4957748;28;20430;-78
2022/05/29 12:25:58;;;;;;;2.13;1.73;;;14.20;99.90;;;;;;4957929;29;20433;-78
2022/05/29 12:28:36;;;;;;;2.23;1.47;;;14.30;99.90;;;;;;4957784;29;20426;-78
2022/05/29 12:31:02;;;;;;;6.90;2.03;;;14.20;99.90;;;;;;4957734;29;20540;-78
2022/05/29 12:33:28;;;;;;;1.70;1.40;;;14.10;99.90;;;;;;4957870;28;20497;-78
2022/05/29 12:36:19;;;;;;;2.90;2.03;;;14.10;99.90;;;;;;4958073;29;20549;-78
2022/05/29 12:38:51;;;;;;;4.40;2.07;;;14.30;99.90;;;;;;4957766;29;20658;-78
2022/05/29 12:41:38;;;;;;;4.13;2.30;;;14.50;99.90;;;;;;4957975;29;20410;-78
2022/05/29 12:44:26;;;;;;;4.97;2.20;;;14.60;99.90;;;;;;4957854;29;20430;-78
2022/05/29 12:47:20;;;;;;;6.73;1.90;;;14.80;99.90;;;;;;4930125;28;20433;-78
2022/05/29 12:50:19;;;;;;;5.50;2.17;;;14.90;99.90;;;;;;4957813;29;20422;-77
2022/05/29 12:53:03;;;;;;;8.30;2.50;;;15.20;99.90;;;;;;4957728;28;20551;-77
2022/05/29 12:55:59;;;;;;;2.77;2.00;;;15.40;99.90;;;;;;4957528;29;20513;-77
2022/05/29 12:58:39;;;;;;;4.90;2.27;;;15.40;99.90;;;;;;4957661;29;20512;-77
2022/05/29 13:01:25;;;;;;;3.13;2.40;;;15.40;99.90;;;;;;4957713;29;20504;-77
2022/05/29 13:04:15;;;;;;;3.73;2.40;;;15.40;99.90;;;;;;4957558;29;20493;-77
2022/05/29 13:07:06;;;;;;;9.33;2.77;;;15.00;99.90;;;;;;4957267;29;20430;-77
2022/05/29 13:09:34;;;;;;;3.93;1.93;;;15.10;99.90;;;;;;4957218;28;20422;-77
2022/05/29 13:12:06;;;;;;;3.30;1.70;;;15.20;99.90;;;;;;4957347;29;20533;-77
2022/05/29 13:14:33;;;;;;;5.90;1.90;;;15.40;99.90;;;;;;4957130;29;20465;-77
2022/05/29 13:17:22;;;;;;;3.93;2.23;;;15.60;99.90;;;;;;4957215;29;20773;-77
2022/05/29 13:19:59;;;;;;;4.07;1.97;;;15.60;99.90;;;;;;4957122;28;20414;-77
2022/05/29 13:22:46;;;;;;;5.30;2.73;;;15.60;99.90;;;;;;4957189;29;20421;-77
2022/05/29 13:25:13;;;;;;;5.20;1.90;;;15.80;99.90;;;;;;4957244;28;20505;-77
2022/05/29 13:27:39;;;;;;;4.33;2.13;;;15.90;99.90;;;;;;4956817;28;20431;-77
2022/05/29 13:30:08;;;;;;;2.97;1.93;;;16.00;99.90;;;;;;4957169;29;20426;-77
2022/05/29 13:32:35;;;;;;;5.50;2.00;;;15.90;99.90;;;;;;4956575;29;20474;-77
2022/05/29 13:35:04;;;;;;;3.57;2.20;;;15.80;99.90;;;;;;4956840;29;20874;-77
2022/05/29 13:37:32;;;;;;;9.87;2.67;;;15.80;99.90;;;;;;4956898;29;20430;-77
2022/05/29 13:40:29;;;;;;;7.10;2.37;;;15.80;99.90;;;;;;4956909;29;20418;-77
2022/05/29 13:43:15;;;;;;;3.30;1.17;;;15.80;99.90;;;;;;4956589;29;20422;-77
2022/05/29 13:45:43;;;;;;;2.23;1.20;;;15.50;99.90;;;;;;4954800;29;20457;-77
2022/05/29 13:48:17;;;;;;;2.40;1.37;;;15.30;99.90;;;;;;4956367;29;20430;-77
2022/05/29 13:51:01;;;;;;;1.80;1.40;;;15.00;99.90;;;;;;4956189;29;20532;-77
2022/05/29 13:53:26;;;;;;;3.03;1.43;;;14.90;99.90;;;;;;4956349;29;20568;-77
2022/05/29 13:56:09;;;;;;;4.20;1.80;;;14.90;99.90;;;;;;4956354;29;21039;-77
2022/05/29 14:04:39;;;;;;;4.23;1.90;;;15.30;99.90;;;;;;4955949;29;20433;-77
2022/05/29 14:07:13;;;;;;;7.27;2.17;;;15.50;99.90;;;;;;4956072;29;20426;-77
2022/05/29 14:09:40;;;;;;;6.17;1.93;;;15.60;99.90;;;;;;4955895;29;20429;-77
2022/05/29 14:12:21;;;;;;;2.23;1.30;;;15.80;99.90;;;;;;4954860;29;20993;-77
2022/05/29 14:14:52;;;;;;;5.30;2.07;;;16.00;99.90;;;;;;4955682;29;20489;-77
2022/05/29 14:17:44;;;;;;;5.67;1.90;;;16.00;99.90;;;;;;4956163;29;20430;-77
2022/05/29 14:20:45;;;;;;;5.00;1.87;;;15.90;99.90;;;;;;4953112;28;20529;-77
2022/05/29 14:23:32;;;;;;;7.03;2.23;;;16.00;99.90;;;;;;4903707;29;20937;-76
2022/05/29 14:26:22;;;;;;;4.83;2.00;;;16.10;99.90;;;;;;4955723;28;20426;-77
2022/05/29 14:29:19;;;;;;;3.07;1.60;;;16.20;99.90;;;;;;4955818;28;20434;-77
2022/05/29 14:31:54;;;;;;;7.43;3.00;;;16.30;99.90;;;;;;4953625;29;20970;-77
2022/05/29 14:34:29;;;;;;;2.80;1.60;;;16.40;99.90;;;;;;4954637;29;20430;-77
2022/05/29 14:37:44;;;;;;;4.80;1.63;;;16.50;99.90;;;;;;4955495;29;20437;-77
2022/05/29 14:40:24;;;;;;;5.37;1.87;;;16.30;99.90;;;;;;4923695;29;20844;-77
2022/05/29 14:42:53;;;;;;;2.70;1.43;;;16.30;99.90;;;;;;4955208;29;20442;-77
2022/05/29 14:45:29;;;;;;;2.80;1.37;;;16.30;99.90;;;;;;4955425;29;20425;-77
2022/05/29 14:48:07;;;;;;;4.67;1.57;;;16.20;99.90;;;;;;4955097;29;20422;-76
2022/05/29 14:50:56;;;;;;;2.40;1.30;;;16.10;99.90;;;;;;4955335;29;20418;-77
2022/05/29 14:53:48;;;;;;;3.63;1.40;;;16.10;99.90;;;;;;4954547;29;20445;-77
2022/05/29 14:56:35;;;;;;;2.67;1.10;;;16.00;99.90;;;;;;4955208;29;20517;-77
2022/05/29 14:59:28;;;;;;;3.33;1.33;;;16.10;99.90;;;;;;4955295;29;20460;-77
2022/05/29 15:01:56;;;;;;;1.90;1.10;;;16.20;99.90;;;;;;4954707;29;20417;-77
2022/05/29 15:04:27;;;;;;;3.10;1.20;;;16.20;99.90;;;;;;4954544;28;20500;-80
2022/05/29 15:12:34;;;;;;;3.10;1.37;;;16.00;99.90;;;;;;4954982;29;20433;-73
2022/05/29 15:15:26;;;;;;;1.50;1.40;;;15.90;99.90;;;;;;4954892;29;20473;-76
2022/05/29 15:17:52;;;;;;;5.40;1.37;;;15.90;99.90;;;;;;4954711;29;20493;-76
2022/05/29 15:26:02;;;;;;;2.50;1.23;;;15.60;99.90;;;;;;4954335;29;20477;-78
2022/05/29 15:28:29;;;;;;;2.70;1.13;;;15.60;99.90;;;;;;4944792;29;20538;-78
2022/05/29 15:30:55;;;;;;;3.90;1.20;;;15.50;99.90;;;;;;4940526;29;20466;-77
2022/05/29 15:33:32;;;;;;;3.00;1.40;;;15.40;99.90;;;;;;4943719;29;20434;-75
2022/05/29 15:36:09;;;;;;;1.50;1.30;;;15.40;99.90;;;;;;4940810;29;20562;-77
2022/05/29 15:38:52;;;;;;;11.43;1.70;;;15.60;99.90;;;;;;4940070;29;20459;-76
2022/05/29 15:41:50;;;;;;;1.70;1.23;;;15.80;99.90;;;;;;4954490;29;20790;-75
2022/05/29 15:44:26;;;;;;;3.60;1.73;;;16.00;99.90;;;;;;4954624;28;20422;-79
2022/05/29 15:47:10;;;;;;;4.43;1.40;;;16.20;99.90;;;;;;4954699;29;20421;-79
2022/05/29 15:49:54;;;;;;;3.40;1.40;;;16.30;99.90;;;;;;4957976;29;20425;-81
2022/05/29 15:53:00;;;;;;;7.10;1.63;;;16.40;99.90;;;;;;4957733;28;20454;-79
2022/05/29 15:55:29;;;;;;;3.90;1.87;;;16.40;99.90;;;;;;4950964;29;20481;-86
2022/05/29 15:58:11;;;;;;;4.93;1.50;;;16.50;99.90;;;;;;4958594;29;20936;-82
2022/05/29 16:00:41;;;;;;;5.67;1.40;;;16.50;99.90;;;;;;4958368;29;20433;-81
2022/05/29 16:03:13;;;;;;;2.57;1.30;;;16.50;99.90;;;;;;4958525;29;20773;-81
2022/05/29 16:05:40;;;;;;;2.93;1.40;;;16.40;99.90;;;;;;4944671;29;20449;-82
2022/05/29 16:08:27;;;;;;;3.93;1.40;;;16.20;99.90;;;;;;4946988;29;20431;-82
2022/05/29 16:10:55;;;;;;;5.60;2.00;;;16.30;99.90;;;;;;4948754;29;20460;-76
2022/05/29 16:13:47;;;;;;;2.97;1.53;;;16.20;99.90;;;;;;4947891;29;20838;-81
2022/05/29 16:16:17;;;;;;;27.33;24.60;;;16.30;99.90;;;;;;4957045;29;20485;-82
2022/05/29 16:19:03;;;;;;;48.80;28.83;;;16.50;99.90;;;;;;4958319;29;20501;-78
2022/05/29 16:21:47;;;;;;;461.83;361.60;;;17.20;99.90;;;;;;4958004;28;20856;-80
2022/05/29 16:24:37;;;;;;;100.67;72.33;;;17.60;99.90;;;;;;4958142;29;20430;-76
2022/05/29 16:27:20;;;;;;;224.57;183.17;;;18.10;99.90;;;;;;4958603;28;20516;-82
2022/05/29 16:29:59;;;;;;;138.07;108.30;;;18.60;99.90;;;;;;4959982;28;20445;-85
2022/05/29 16:32:45;;;;;;;7.35;6.13;;;19.00;99.90;;;;;;4956681;28;20451;-79
2022/05/29 16:35:24;;;;;;;4.50;2.70;;;18.90;98.90;;;;;;4956022;29;20446;-79
2022/05/29 16:49:43;;;;;;;6.83;1.27;;;18.50;95.60;;;;;;4957225;29;20941;-83
2022/05/29 16:52:26;;;;;;;2.57;1.43;;;17.80;97.00;;;;;;4956848;29;20422;-81
2022/05/29 16:55:08;;;;;;;1.93;1.20;;;17.60;98.60;;;;;;4956756;29;20217;-80
2022/05/29 16:57:48;;;;;;;2.80;1.40;;;17.20;99.30;;;;;;4956584;29;20577;-79
2022/05/29 17:00:25;;;;;;;1.23;1.10;;;17.00;99.90;;;;;;4956825;29;20750;-78
2022/05/29 17:02:55;;;;;;;3.97;1.57;;;16.90;99.90;;;;;;4956601;28;20441;-73
2022/05/29 17:05:51;;;;;;;2.73;1.63;;;16.70;99.90;;;;;;4956370;29;20529;-80
2022/05/29 17:08:39;;;;;;;2.67;1.70;;;16.70;99.90;;;;;;4956588;29;20436;-77
2022/05/29 17:11:15;;;;;;;2.20;1.30;;;16.40;99.90;;;;;;4956513;28;20449;-78
2022/05/29 17:13:40;;;;;;;1.60;1.20;;;16.30;99.90;;;;;;4956375;29;20480;-78
2022/05/29 17:16:07;;;;;;;2.10;1.20;;;16.10;99.90;;;;;;4956200;29;20477;-78
2022/05/29 17:18:33;;;;;;;8.40;1.30;;;16.00;99.90;;;;;;4956381;29;20266;-76
2022/05/29 17:21:20;;;;;;;2.40;1.13;;;15.90;99.90;;;;;;4955130;29;20465;-76
2022/05/29 17:24:04;;;;;;;3.47;1.83;;;15.80;99.90;;;;;;4940261;29;20427;-77
2022/05/29 17:26:38;;;;;;;3.57;1.40;;;15.80;99.90;;;;;;4934818;29;20414;-77
2022/05/29 17:29:27;;;;;;;1.57;1.10;;;15.60;99.90;;;;;;4934797;29;20435;-77
2022/05/29 17:32:07;;;;;;;4.20;1.50;;;15.50;99.90;;;;;;4940548;29;20478;-73
2022/05/29 17:34:38;;;;;;;3.00;1.43;;;15.50;99.90;;;;;;4942336;29;20493;-77
2022/05/29 17:37:17;;;;;;;5.13;1.50;;;15.60;99.90;;;;;;4945143;29;20441;-77
2022/05/29 17:39:56;;;;;;;13.57;1.50;;;15.50;99.90;;;;;;4944720;29;20445;-79
2022/05/29 17:42:22;;;;;;;4.60;1.60;;;15.50;99.90;;;;;;4917515;29;20440;-80
2022/05/29 17:44:48;;;;;;;1.97;1.20;;;15.20;99.90;;;;;;4916949;29;20436;-80
2022/05/29 17:47:38;;;;;;;4.50;1.60;;;15.10;99.90;;;;;;4916789;29;20547;-78
2022/05/29 17:50:46;;;;;;;6.43;2.93;;;15.30;99.90;;;;;;4917163;29;20259;-78
2022/05/29 17:53:34;;;;;;;3.13;1.30;;;15.10;99.90;;;;;;4916854;29;20491;-79
2022/05/29 17:55:59;;;;;;;1.70;1.07;;;15.20;99.90;;;;;;4917128;29;20572;-79
2022/05/29 17:58:25;;;;;;;3.80;1.50;;;15.20;99.90;;;;;;4917321;29;20436;-78
2022/05/29 18:00:51;;;;;;;3.17;1.20;;;15.20;99.90;;;;;;4917593;29;20668;-77
2022/05/29 18:03:22;;;;;;;5.93;1.77;;;15.20;99.90;;;;;;4917242;29;20217;-78
2022/05/29 18:05:49;;;;;;;6.43;2.00;;;15.10;99.90;;;;;;4917234;29;20643;-72
2022/05/29 18:08:16;;;;;;;2.70;1.70;;;14.90;99.90;;;;;;4916796;29;20432;-73
2022/05/29 18:10:46;;;;;;;2.80;1.30;;;15.00;99.90;;;;;;4925160;29;20446;-74
2022/05/29 18:13:11;;;;;;;1.97;1.73;;;14.90;99.90;;;;;;4938600;29;20438;-73
2022/05/29 18:15:37;;;;;;;2.73;1.53;;;14.80;99.90;;;;;;4947427;28;20887;-73
2022/05/29 18:18:03;;;;;;;2.27;1.40;;;14.70;99.90;;;;;;4954244;29;20206;-75
2022/05/29 18:20:28;;;;;;;2.60;1.10;;;14.80;99.90;;;;;;4955235;29;20183;-73
2022/05/29 18:22:54;;;;;;;3.67;1.67;;;14.80;99.90;;;;;;4955162;29;20638;-75
2022/05/29 18:25:20;;;;;;;2.17;1.50;;;14.80;99.90;;;;;;4955185;29;20194;-75
2022/05/29 18:27:46;;;;;;;3.33;1.60;;;14.70;99.90;;;;;;4955086;29;20183;-75
2022/05/29 18:30:14;;;;;;;6.10;1.80;;;14.80;99.90;;;;;;4954829;29;20445;-75
2022/05/29 18:32:40;;;;;;;2.00;1.30;;;14.70;99.90;;;;;;4954945;29;20446;-74
2022/05/29 18:35:08;;;;;;;4.43;1.83;;;14.50;99.90;;;;;;4953820;29;20476;-75
2022/05/29 18:37:33;;;;;;;3.60;1.30;;;14.60;99.90;;;;;;4954843;29;20186;-75
2022/05/29 18:40:00;;;;;;;3.23;1.80;;;14.60;99.90;;;;;;4954913;29;20481;-75
2022/05/29 18:42:26;;;;;;;4.37;1.60;;;14.60;99.90;;;;;;4954643;29;20206;-74
2022/05/29 18:44:51;;;;;;;4.40;1.70;;;14.50;99.90;;;;;;4954804;29;20422;-74